createdAt,value
2022-12-25T00:01:32.288Z,29.60
2022-12-25T00:03:59.528Z,38.15
2022-12-25T00:06:26.625Z,36.60
2022-12-25T00:08:53.763Z,25.73
2022-12-25T00:11:21.367Z,34.95
2022-12-25T00:13:49.194Z,34.13
2022-12-25T00:16:24.198Z,21.65
2022-12-25T00:18:52.110Z,33.78
2022-12-25T00:21:21.273Z,32.33
2022-12-25T00:23:48.446Z,33.83
2022-12-25T00:26:17.760Z,29.85
2022-12-25T00:28:44.894Z,24.60
2022-12-25T00:31:17.753Z,29.48
2022-12-25T00:33:46.712Z,25.30
2022-12-25T00:36:16.259Z,27.85
2022-12-25T00:38:43.882Z,21.00
2022-12-25T00:41:17.569Z,28.63
2022-12-25T00:43:44.791Z,32.88
2022-12-25T00:46:13.319Z,28.13
2022-12-25T00:48:41.872Z,25.08
2022-12-25T00:51:11.749Z,26.88
2022-12-25T00:53:38.833Z,21.45
2022-12-25T00:56:08.310Z,23.25
2022-12-25T00:58:35.631Z,24.58
2022-12-25T01:01:04.133Z,22.05
2022-12-25T01:03:31.546Z,22.13
2022-12-25T01:06:02.360Z,26.23
2022-12-25T01:08:32.488Z,18.60
2022-12-25T01:11:02.940Z,24.10
2022-12-25T01:13:31.312Z,22.25
2022-12-25T01:15:58.655Z,29.67
2022-12-25T01:18:25.997Z,26.42
2022-12-25T01:20:53.097Z,28.27
2022-12-25T01:23:20.060Z,25.25
2022-12-25T01:25:47.085Z,23.40
2022-12-25T01:28:14.045Z,23.48
2022-12-25T01:30:48.008Z,32.65
2022-12-25T01:33:14.942Z,27.55
2022-12-25T01:35:42.605Z,23.23
2022-12-25T01:38:09.588Z,26.85
2022-12-25T01:40:36.484Z,18.30
2022-12-25T01:43:06.470Z,18.35
2022-12-25T01:45:38.074Z,25.25
2022-12-25T01:48:19.797Z,25.13
2022-12-25T01:50:54.270Z,27.42
2022-12-25T01:53:21.555Z,24.27
2022-12-25T01:55:55.370Z,33.88
2022-12-25T01:58:22.391Z,28.27
2022-12-25T02:00:51.895Z,23.38
2022-12-25T02:03:20.736Z,15.98
2022-12-25T02:05:48.295Z,20.83
2022-12-25T02:08:18.847Z,26.33
2022-12-25T02:10:46.405Z,16.63
2022-12-25T02:13:17.742Z,27.42
2022-12-25T02:16:16.208Z,23.30
2022-12-25T02:18:52.524Z,37.42
2022-12-25T02:21:56.829Z,24.27
2022-12-25T02:24:52.332Z,15.95
2022-12-25T02:27:46.262Z,30.23
2022-12-25T02:30:13.750Z,21.98
2022-12-25T02:32:46.784Z,20.92
2022-12-25T02:35:31.210Z,28.00
2022-12-25T02:38:10.381Z,24.42
2022-12-25T02:40:51.282Z,20.77
2022-12-25T02:43:54.298Z,24.70
2022-12-25T02:46:43.069Z,22.13
2022-12-25T02:49:35.019Z,27.90
2022-12-25T02:52:33.386Z,24.75
2022-12-25T02:55:28.763Z,33.90
2022-12-25T02:58:19.416Z,20.77
2022-12-25T03:01:13.821Z,19.58
2022-12-25T03:04:00.360Z,16.17
2022-12-25T03:06:43.816Z,22.70
2022-12-25T03:09:41.528Z,15.48
2022-12-25T03:12:42.352Z,26.02
2022-12-25T03:15:30.040Z,23.50
2022-12-25T03:18:01.861Z,24.83
2022-12-25T03:20:48.794Z,19.50
2022-12-25T03:23:39.659Z,24.35
2022-12-25T03:26:26.863Z,28.33
2022-12-25T03:28:53.826Z,22.75
2022-12-25T03:31:47.214Z,21.58
2022-12-25T03:35:11.674Z,35.13
2022-12-25T03:38:22.252Z,22.27
2022-12-25T03:41:32.048Z,24.30
2022-12-25T03:44:27.980Z,16.55
2022-12-25T03:47:39.354Z,23.92
2022-12-25T03:50:52.876Z,32.97
2022-12-25T03:54:00.267Z,28.00
2022-12-25T03:56:48.576Z,22.92
2022-12-25T03:59:39.378Z,30.35
2022-12-25T04:02:26.122Z,25.48
2022-12-25T04:05:11.942Z,23.40
2022-12-25T04:07:59.021Z,24.83
2022-12-25T04:10:44.703Z,28.45
2022-12-25T04:13:30.445Z,22.88
2022-12-25T04:16:16.218Z,22.35
2022-12-25T04:19:01.986Z,17.95
2022-12-25T04:21:48.786Z,22.35
2022-12-25T04:24:34.304Z,21.55
2022-12-25T04:27:19.580Z,22.63
2022-12-25T04:30:04.913Z,23.93
2022-12-25T04:32:50.337Z,26.47
2022-12-25T04:35:36.051Z,20.73
2022-12-25T04:38:03.039Z,21.58
2022-12-25T04:40:30.036Z,18.73
2022-12-25T04:42:57.068Z,13.60
2022-12-25T04:45:24.180Z,14.70
2022-12-25T04:47:51.251Z,14.90
2022-12-25T04:50:18.331Z,13.50
2022-12-25T04:52:46.020Z,17.80
2022-12-25T04:55:13.117Z,20.10
2022-12-25T04:57:40.492Z,22.92
2022-12-25T05:00:08.524Z,18.02
2022-12-25T05:02:35.934Z,25.75
2022-12-25T05:05:03.222Z,11.70
2022-12-25T05:07:30.220Z,12.70
2022-12-25T05:09:57.425Z,17.00
2022-12-25T05:12:24.384Z,23.48
2022-12-25T05:14:51.311Z,14.82
2022-12-25T05:17:18.321Z,13.70
2022-12-25T05:19:45.206Z,24.63
2022-12-25T05:22:12.148Z,20.67
2022-12-25T05:24:39.184Z,15.80
2022-12-25T05:27:06.159Z,14.95
2022-12-25T05:29:33.093Z,20.02
2022-12-25T05:32:00.046Z,13.38
2022-12-25T05:34:26.958Z,15.88
2022-12-25T05:36:53.967Z,17.55
2022-12-25T05:39:20.965Z,13.55
2022-12-25T05:41:48.039Z,17.33
2022-12-25T05:44:14.910Z,15.30
2022-12-25T05:46:42.544Z,15.32
2022-12-25T05:49:09.640Z,13.63
2022-12-25T05:51:36.669Z,16.58
2022-12-25T05:54:03.925Z,19.75
2022-12-25T05:56:30.871Z,14.25
2022-12-25T05:58:57.839Z,15.57
2022-12-25T06:01:28.652Z,15.52
2022-12-25T06:03:57.272Z,14.20
2022-12-25T06:06:24.335Z,15.00
2022-12-25T06:08:55.272Z,18.67
2022-12-25T06:11:22.850Z,16.13
2022-12-25T06:13:51.849Z,20.67
2022-12-25T06:20:06.917Z,20.85
2022-12-25T06:26:04.480Z,17.48
2022-12-25T06:28:31.379Z,24.90
2022-12-25T06:30:58.444Z,17.23
2022-12-25T06:33:25.507Z,18.60
2022-12-25T06:35:52.421Z,20.63
2022-12-25T06:38:19.386Z,24.40
2022-12-25T06:40:46.300Z,24.63
2022-12-25T06:43:13.246Z,26.42
2022-12-25T06:45:40.236Z,22.83
2022-12-25T06:48:07.248Z,18.08
2022-12-25T06:50:34.182Z,18.35
2022-12-25T06:53:01.203Z,18.10
2022-12-25T06:55:28.201Z,20.83
2022-12-25T06:57:55.423Z,17.75
2022-12-25T07:00:22.467Z,17.10
2022-12-25T07:02:50.363Z,18.67
2022-12-25T07:05:17.572Z,31.70
2022-12-25T07:07:44.532Z,21.42
2022-12-25T07:10:11.816Z,20.35
2022-12-25T07:12:38.866Z,21.60
2022-12-25T07:15:06.595Z,16.52
2022-12-25T07:17:34.724Z,16.85
2022-12-25T07:20:02.269Z,14.43
2022-12-25T07:22:30.179Z,24.63
2022-12-25T07:24:57.205Z,19.00
2022-12-25T07:27:24.569Z,13.55
2022-12-25T07:29:51.505Z,14.93
2022-12-25T07:32:18.524Z,13.57
2022-12-25T07:34:45.533Z,14.98
2022-12-25T07:37:13.094Z,16.15
2022-12-25T07:39:40.772Z,21.27
2022-12-25T07:42:08.053Z,14.40
2022-12-25T07:44:34.982Z,16.25
2022-12-25T07:47:01.924Z,12.52
2022-12-25T07:49:28.909Z,14.13
2022-12-25T07:51:55.918Z,17.75
2022-12-25T07:54:23.151Z,13.93
2022-12-25T07:56:53.966Z,13.88
2022-12-25T07:59:21.101Z,19.38
2022-12-25T08:01:50.380Z,18.50
2022-12-25T08:04:19.384Z,13.60
2022-12-25T08:06:46.502Z,17.42
2022-12-25T08:09:13.731Z,17.27
2022-12-25T08:11:46.752Z,15.68
2022-12-25T08:14:14.946Z,14.30
2022-12-25T08:16:42.364Z,13.40
2022-12-25T08:19:11.854Z,14.48
2022-12-25T08:24:33.639Z,18.15
2022-12-25T08:27:00.664Z,12.13
2022-12-25T08:29:29.044Z,12.02
2022-12-25T08:31:56.257Z,11.65
2022-12-25T08:34:23.348Z,10.43
2022-12-25T08:36:50.328Z,15.15
2022-12-25T08:39:17.418Z,14.35
2022-12-25T08:41:44.327Z,14.48
2022-12-25T08:44:12.920Z,10.90
2022-12-25T08:46:40.588Z,14.20
2022-12-25T08:49:07.718Z,9.95
2022-12-25T08:51:34.760Z,11.05
2022-12-25T08:54:01.879Z,10.82
2022-12-25T08:56:29.140Z,14.30
2022-12-25T08:58:56.110Z,10.60
2022-12-25T09:01:23.255Z,11.57
2022-12-25T09:03:50.510Z,9.82
2022-12-25T09:06:17.571Z,10.88
2022-12-25T09:08:49.056Z,11.45
2022-12-25T09:11:19.164Z,13.48
2022-12-25T09:13:46.884Z,11.80
2022-12-25T09:16:19.017Z,11.68
2022-12-25T09:18:46.264Z,12.60
2022-12-25T09:21:15.836Z,11.75
2022-12-25T09:23:43.088Z,9.02
2022-12-25T09:26:14.874Z,9.38
2022-12-25T09:28:46.802Z,12.25
2022-12-25T09:31:18.275Z,12.23
2022-12-25T09:33:45.454Z,16.40
2022-12-25T09:36:12.468Z,12.57
2022-12-25T09:38:39.748Z,10.07
2022-12-25T09:41:39.624Z,11.20
2022-12-25T09:44:17.053Z,6.60
2022-12-25T09:47:06.247Z,20.13
2022-12-25T09:50:00.562Z,14.02
2022-12-25T09:52:44.150Z,11.13
2022-12-25T09:55:24.400Z,10.93
2022-12-25T09:57:57.660Z,10.20
2022-12-25T10:00:30.932Z,9.10
2022-12-25T10:03:23.862Z,7.68
2022-12-25T10:06:10.946Z,12.45
2022-12-25T10:09:13.548Z,8.25
2022-12-25T10:12:27.425Z,9.90
2022-12-25T10:15:08.835Z,9.52
2022-12-25T10:17:50.808Z,8.43
2022-12-25T10:20:53.576Z,9.93
2022-12-25T10:23:44.428Z,9.55
2022-12-25T10:26:18.541Z,10.50
2022-12-25T10:28:51.575Z,7.38
2022-12-25T10:31:23.108Z,8.93
2022-12-25T10:33:53.241Z,9.63
2022-12-25T10:36:26.847Z,10.07
2022-12-25T10:38:55.694Z,11.52
2022-12-25T10:42:13.725Z,11.77
2022-12-25T10:44:40.695Z,9.90
2022-12-25T10:47:07.786Z,11.50
2022-12-25T10:49:39.606Z,14.77
2022-12-25T10:52:25.852Z,13.93
2022-12-25T11:00:27.822Z,11.35
2022-12-25T11:02:55.382Z,12.43
2022-12-25T11:05:34.749Z,13.38
2022-12-25T11:08:03.809Z,17.80
2022-12-25T11:10:37.924Z,12.25
2022-12-25T11:13:17.913Z,14.70
2022-12-25T11:16:15.774Z,15.13
2022-12-25T11:18:49.421Z,16.13
2022-12-25T11:21:37.940Z,12.27
2022-12-25T11:24:16.300Z,13.20
2022-12-25T11:26:57.132Z,11.07
2022-12-25T11:29:49.663Z,9.85
2022-12-25T11:32:34.649Z,9.63
2022-12-25T11:35:02.956Z,15.82
2022-12-25T11:37:48.791Z,9.68
2022-12-25T11:40:24.359Z,10.98
2022-12-25T11:42:57.568Z,12.60
2022-12-25T11:45:33.397Z,12.70
2022-12-25T11:48:11.890Z,11.00
2022-12-25T11:50:48.169Z,13.18
2022-12-25T11:53:41.622Z,12.57
2022-12-25T11:56:36.260Z,12.52
2022-12-25T11:59:18.362Z,13.02
2022-12-25T12:01:52.412Z,14.32
2022-12-25T12:04:30.193Z,13.82
2022-12-25T12:07:13.798Z,14.32
2022-12-25T12:10:16.570Z,13.18
2022-12-25T12:13:21.343Z,14.95
2022-12-25T12:15:49.993Z,17.23
2022-12-25T12:18:27.089Z,15.35
2022-12-25T12:21:25.196Z,16.27
2022-12-25T12:24:14.036Z,16.27
2022-12-25T12:26:43.871Z,14.32
2022-12-25T12:29:49.642Z,16.88
2022-12-25T12:32:38.412Z,13.73
2022-12-25T12:35:34.737Z,18.70
2022-12-25T12:38:12.928Z,18.02
2022-12-25T12:40:44.685Z,17.88
2022-12-25T12:43:31.747Z,18.02
2022-12-25T12:46:31.097Z,13.02
2022-12-25T12:49:30.521Z,19.52
2022-12-25T12:52:24.789Z,21.15
2022-12-25T12:55:15.188Z,19.25
2022-12-25T12:57:42.846Z,17.80
2022-12-25T13:00:18.881Z,22.20
2022-12-25T13:02:57.723Z,17.98
2022-12-25T13:05:50.593Z,18.52
2022-12-25T13:08:51.659Z,17.58
2022-12-25T13:11:25.297Z,20.83
2022-12-25T13:13:55.718Z,20.65
2022-12-25T13:16:34.208Z,16.70
2022-12-25T13:19:09.224Z,19.83
2022-12-25T13:21:36.220Z,17.08
2022-12-25T13:24:10.667Z,18.48
2022-12-25T13:26:39.515Z,20.17
2022-12-25T13:29:11.254Z,22.08
2022-12-25T13:31:41.325Z,18.85
2022-12-25T13:34:36.505Z,21.60
2022-12-25T13:37:15.119Z,15.15
2022-12-25T13:40:01.292Z,15.55
2022-12-25T13:42:36.429Z,19.60
2022-12-25T13:45:13.639Z,16.65
2022-12-25T13:47:43.216Z,21.52
2022-12-25T13:50:28.760Z,17.95
2022-12-25T13:52:58.779Z,21.73
2022-12-25T13:55:28.559Z,23.60
2022-12-25T13:58:01.624Z,28.52
2022-12-25T14:00:45.580Z,25.15
2022-12-25T14:03:25.195Z,21.52
2022-12-25T14:06:27.639Z,19.60
2022-12-25T14:08:56.953Z,21.25
2022-12-25T14:11:27.362Z,19.48
2022-12-25T14:14:01.717Z,21.48
2022-12-25T14:16:28.963Z,21.98
2022-12-25T14:19:01.859Z,18.17
2022-12-25T14:21:35.299Z,17.77
2022-12-25T14:24:02.589Z,21.45
2022-12-25T14:26:33.862Z,19.73
2022-12-25T14:29:17.208Z,20.98
2022-12-25T14:31:47.425Z,21.83
2022-12-25T14:34:25.566Z,16.17
2022-12-25T14:36:53.693Z,19.80
2022-12-25T14:39:36.868Z,19.55
2022-12-25T14:42:22.911Z,18.77
2022-12-25T14:45:33.668Z,21.77
2022-12-25T14:48:22.881Z,22.25
2022-12-25T14:51:09.310Z,21.48
2022-12-25T14:53:49.308Z,18.88
2022-12-25T14:56:20.253Z,18.42
2022-12-25T14:58:53.752Z,18.77
2022-12-25T15:01:35.280Z,14.93
2022-12-25T15:04:17.974Z,19.48
2022-12-25T15:07:07.496Z,19.58
2022-12-25T15:09:36.140Z,18.05
2022-12-25T15:12:04.438Z,18.48
2022-12-25T15:14:31.751Z,24.77
2022-12-25T15:17:01.060Z,18.98
2022-12-25T15:19:37.626Z,19.83
2022-12-25T15:22:06.225Z,20.90
2022-12-25T15:24:33.280Z,17.15
2022-12-25T15:27:00.850Z,22.08
2022-12-25T15:32:22.101Z,18.30
2022-12-25T15:34:50.138Z,82.68
2022-12-25T15:37:18.893Z,33.20
2022-12-25T15:39:46.402Z,217.20
2022-12-25T15:42:17.729Z,194.63
2022-12-25T15:44:45.532Z,63.03
2022-12-25T15:47:14.494Z,31.02
2022-12-25T15:49:42.163Z,23.75
2022-12-25T15:52:17.720Z,24.15
2022-12-25T15:54:44.646Z,27.73
2022-12-25T15:57:20.674Z,27.27
2022-12-25T15:59:48.134Z,38.88
2022-12-25T16:02:19.179Z,28.08
2022-12-25T16:04:46.778Z,23.48
2022-12-25T16:07:17.722Z,20.77
2022-12-25T16:09:45.111Z,22.80
2022-12-25T16:12:12.792Z,20.90
2022-12-25T16:14:39.778Z,19.98
2022-12-25T16:17:06.676Z,23.13
2022-12-25T16:19:33.793Z,19.33
2022-12-25T16:22:01.290Z,20.83
2022-12-25T16:24:29.470Z,23.92
2022-12-25T16:26:56.432Z,21.35
2022-12-25T16:29:23.318Z,32.13
2022-12-25T16:31:50.278Z,21.65
2022-12-25T16:34:17.318Z,23.17
2022-12-25T16:36:44.405Z,26.52
2022-12-25T16:39:11.384Z,26.90
2022-12-25T16:41:38.388Z,20.77
2022-12-25T16:44:09.656Z,35.35
2022-12-25T16:46:39.930Z,336.27
2022-12-25T16:49:07.110Z,300.70
2022-12-25T16:51:34.224Z,320.45
2022-12-25T16:54:01.436Z,81.95
2022-12-25T16:56:29.950Z,59.83
2022-12-25T16:58:58.704Z,57.90
2022-12-25T17:01:26.240Z,57.53
2022-12-25T17:03:53.565Z,46.17
2022-12-25T17:06:26.868Z,129.82
2022-12-25T17:08:58.895Z,81.70
2022-12-25T17:11:30.368Z,23.95
2022-12-25T17:14:02.821Z,96.65
2022-12-25T17:16:36.429Z,26.92
2022-12-25T17:19:19.176Z,141.18
2022-12-25T17:21:46.656Z,60.42
2022-12-25T17:24:14.554Z,386.90
2022-12-25T17:26:41.762Z,275.48
2022-12-25T17:29:10.035Z,257.67
2022-12-25T17:31:38.103Z,76.03
2022-12-25T17:34:06.760Z,322.25
2022-12-25T17:36:34.363Z,251.68
2022-12-25T17:39:03.608Z,304.85
2022-12-25T17:41:30.899Z,193.25
2022-12-25T17:43:58.119Z,221.23
2022-12-25T17:46:29.366Z,118.50
2022-12-25T17:48:59.516Z,120.97
2022-12-25T17:51:28.560Z,93.32
2022-12-25T17:53:59.182Z,28.25
2022-12-25T17:56:26.709Z,23.08
2022-12-25T17:58:57.399Z,62.42
2022-12-25T18:01:26.541Z,117.70
2022-12-25T18:03:54.973Z,230.45
2022-12-25T18:06:24.507Z,100.00
2022-12-25T18:08:51.790Z,116.90
2022-12-25T18:11:24.620Z,112.05
2022-12-25T18:13:53.446Z,211.18
2022-12-25T18:16:23.667Z,65.15
2022-12-25T18:18:52.520Z,15.80
2022-12-25T18:21:22.233Z,38.10
2022-12-25T18:23:50.415Z,33.92
2022-12-25T18:26:19.342Z,84.72
2022-12-25T18:28:47.916Z,79.97
2022-12-25T18:31:21.200Z,105.07
2022-12-25T18:33:49.158Z,131.90
2022-12-25T18:36:22.446Z,40.75
2022-12-25T18:38:51.045Z,18.38
2022-12-25T18:41:18.288Z,46.13
2022-12-25T18:43:52.748Z,49.25
2022-12-25T18:46:24.562Z,27.27
2022-12-25T18:48:53.102Z,27.58
2022-12-25T18:51:20.266Z,25.92
2022-12-25T18:53:47.291Z,19.42
2022-12-25T18:56:17.405Z,17.05
2022-12-25T18:58:45.852Z,28.08
2022-12-25T19:01:22.733Z,28.40
2022-12-25T19:03:51.217Z,38.40
2022-12-25T19:06:21.644Z,45.15
2022-12-25T19:08:48.869Z,41.95
2022-12-25T19:11:17.110Z,36.33
2022-12-25T19:13:45.186Z,40.83
2022-12-25T19:16:12.770Z,20.85
2022-12-25T19:18:40.174Z,29.40
2022-12-25T19:21:09.289Z,24.58
2022-12-25T19:23:37.914Z,51.90
2022-12-25T19:26:07.452Z,31.67
2022-12-25T19:28:35.687Z,22.85
2022-12-25T19:31:07.545Z,26.35
2022-12-25T19:33:36.766Z,21.65
2022-12-25T19:36:11.205Z,24.23
2022-12-25T19:38:38.667Z,30.45
2022-12-25T19:41:12.703Z,33.90
2022-12-25T19:43:41.673Z,35.47
2022-12-25T19:46:15.848Z,30.85
2022-12-25T19:48:43.287Z,31.42
2022-12-25T19:51:29.916Z,33.95
2022-12-25T19:53:57.300Z,27.80
2022-12-25T19:56:28.535Z,29.77
2022-12-25T19:58:56.332Z,25.63
2022-12-25T20:01:27.781Z,23.75
2022-12-25T20:03:55.392Z,22.15
2022-12-25T20:06:32.241Z,25.77
2022-12-25T20:09:13.531Z,20.92
2022-12-25T20:11:40.899Z,35.05
2022-12-25T20:14:11.475Z,23.60
2022-12-25T20:16:40.217Z,44.78
2022-12-25T20:19:08.214Z,40.83
2022-12-25T20:21:35.197Z,18.27
2022-12-25T20:24:03.040Z,24.60
2022-12-25T20:26:32.120Z,16.67
2022-12-25T20:28:59.701Z,22.58
2022-12-25T20:31:32.944Z,27.15
2022-12-25T20:34:05.507Z,43.38
2022-12-25T20:36:37.364Z,27.60
2022-12-25T20:39:09.829Z,68.97
2022-12-25T20:41:38.263Z,39.70
2022-12-25T20:44:09.457Z,81.47
2022-12-25T20:46:37.475Z,67.75
2022-12-25T20:49:06.510Z,58.80
2022-12-25T20:51:33.802Z,40.85
2022-12-25T20:54:01.177Z,39.90
2022-12-25T20:56:29.018Z,69.82
2022-12-25T20:58:58.533Z,113.13
2022-12-25T21:01:26.955Z,87.75
2022-12-25T21:03:54.607Z,128.25
2022-12-25T21:06:22.498Z,104.13
2022-12-25T21:08:49.538Z,203.25
2022-12-25T21:11:17.679Z,149.73
2022-12-25T21:13:46.203Z,92.38
2022-12-25T21:16:17.356Z,86.82
2022-12-25T21:18:44.610Z,97.45
2022-12-25T21:21:12.299Z,24.10
2022-12-25T21:23:40.560Z,12.60
2022-12-25T21:26:20.300Z,31.15
2022-12-25T21:28:49.763Z,14.05
2022-12-25T21:31:17.931Z,14.00
2022-12-25T21:33:55.272Z,18.13
2022-12-25T21:36:34.336Z,16.58
2022-12-25T21:39:07.484Z,17.50
2022-12-25T21:41:37.021Z,16.08
2022-12-25T21:44:04.608Z,18.95
2022-12-25T21:46:32.110Z,18.42
2022-12-25T21:49:00.121Z,16.42
2022-12-25T21:51:50.157Z,16.58
2022-12-25T21:54:22.079Z,16.48
2022-12-25T21:56:49.899Z,17.17
2022-12-25T21:59:20.758Z,16.08
2022-12-25T22:01:49.066Z,19.17
2022-12-25T22:04:18.408Z,18.80
2022-12-25T22:07:04.877Z,18.17
2022-12-25T22:09:32.279Z,17.25
2022-12-25T22:12:18.955Z,19.63
2022-12-25T22:14:55.414Z,15.48
2022-12-25T22:17:47.406Z,21.42
2022-12-25T22:20:20.228Z,20.50
2022-12-25T22:22:47.488Z,19.77
2022-12-25T22:25:15.634Z,18.67
2022-12-25T22:27:44.593Z,16.55
2022-12-25T22:30:21.220Z,19.92
2022-12-25T22:32:48.660Z,19.15
2022-12-25T22:35:16.903Z,18.70
2022-12-25T22:37:44.957Z,16.55
2022-12-25T22:40:15.897Z,18.17
2022-12-25T22:42:43.011Z,18.70
2022-12-25T22:45:11.595Z,17.95
2022-12-25T22:47:41.144Z,16.65
2022-12-25T22:50:09.241Z,17.25
2022-12-25T22:52:37.997Z,16.33
2022-12-25T22:55:07.897Z,12.77
2022-12-25T22:57:35.688Z,16.02
2022-12-25T23:00:04.767Z,13.85
2022-12-25T23:02:32.220Z,14.98
2022-12-25T23:04:59.271Z,13.50
2022-12-25T23:07:26.152Z,14.88
2022-12-25T23:09:53.020Z,12.98
2022-12-25T23:12:38.590Z,13.88
2022-12-25T23:15:06.492Z,13.80
2022-12-25T23:17:51.869Z,14.27
2022-12-25T23:20:37.670Z,11.05
2022-12-25T23:23:23.118Z,13.18
2022-12-25T23:26:08.360Z,14.25
2022-12-25T23:28:57.280Z,14.45
2022-12-25T23:31:37.119Z,12.43
2022-12-25T23:34:06.470Z,14.40
2022-12-25T23:36:34.142Z,14.70
2022-12-25T23:39:07.071Z,17.48
2022-12-25T23:41:36.014Z,14.10
2022-12-25T23:44:03.025Z,14.05
2022-12-25T23:46:30.250Z,15.25
2022-12-25T23:48:57.269Z,15.95
2022-12-25T23:51:24.213Z,16.30
2022-12-25T23:53:51.276Z,15.32
2022-12-25T23:56:18.299Z,12.00
2022-12-25T23:58:51.935Z,15.35
